Hlavní strana
METAR-TAF:

METAR-TAF

Letiště :

Almería, Španělsko

zeměpisná šířka: 36-51N, zeměpisná délka: 002-23W, výška: 15 m

Aktuální stav počasí

Zpráva byla vytvořena před 24 minutami, v 22:30 UTC
Severovýchodní vítr 14 kt
Teplota 16°C
Vlhkost vzduchu 59%
Tlak 1018 hPa
Viditelnost 10 km a více
Žádná oblačnost pod 1500 m, nevyskytují se cumulonimby.

METAR: LEAM 042230Z AUTO 05014KT CAVOK 16/08 Q1018

Čas: 00:54 (22:54 UTC)

Předpověď počasí

Zpráva byla vytvořena před 2 hodinami a 54 minutami, v 20:00 UTC
Předpověď platná od 04 v 21 UTC do 05 v 21 UTC
Východoseverovýchodní vítr 18 kt
Viditelnost 10 km a více
Skoro jasno ve výšce 3000 ft
Změna
od 04 v 21 UTC do 04 v 23 UTC
Severní vítr 8 kt
Změna
od 05 v 08 UTC do 05 v 10 UTC
Východní vítr 15 kt
Změna
od 05 v 19 UTC do 05 v 21 UTC
Severní vítr 6 kt

TAF: LEAM 042000Z 0421/0521 07018KT 9999 FEW030 TX21/0514Z TN11/0506Z BECMG 0421/0423 35008KT BECMG 0508/0510 09015KT BECMG 0519/0521 35006KT

Stav a předpovědi počasí z více než 4 000 letišť (zprávy METAR a TAF).

Červené a žluté tečky na mapě představují dostupné meteorologické stanice.

Když kurzor umístíte na tečku, zobrazí se název stanice.

Pak kliknutím zobrazíte stav a předpověď počasí.

Chcete-li změnit mapu, kliknutím na zelené tlačítko se znaménkem +mapu přiblížíte, kliknutím na zelené tlačítko se znaménkem – mapu oddálíte a kliknutím na zelené šipky přejdete na sousední mapy.


METAR-TAF: